createdAt,value
2022-08-26T00:01:15.262Z,17.20
2022-08-26T00:03:46.182Z,17.30
2022-08-26T00:06:17.341Z,17.30
2022-08-26T00:08:51.221Z,17.30
2022-08-26T00:11:26.650Z,17.30
2022-08-26T00:13:58.616Z,17.40
2022-08-26T00:16:30.973Z,17.40
2022-08-26T00:19:01.540Z,17.40
2022-08-26T00:21:32.110Z,17.40
2022-08-26T00:24:03.177Z,17.40
2022-08-26T00:26:35.613Z,17.50
2022-08-26T00:29:06.172Z,17.50
2022-08-26T00:31:36.545Z,17.50
2022-08-26T00:34:09.339Z,17.50
2022-08-26T00:36:41.418Z,17.50
2022-08-26T00:39:12.307Z,17.60
2022-08-26T00:41:43.838Z,17.60
2022-08-26T00:44:14.682Z,17.60
2022-08-26T00:47:00.314Z,17.60
2022-08-26T00:49:44.183Z,17.60
2022-08-26T00:52:22.311Z,17.70
2022-08-26T00:55:06.131Z,17.70
2022-08-26T00:57:37.930Z,17.70
2022-08-26T01:00:14.077Z,17.70
2022-08-26T01:02:46.802Z,17.80
2022-08-26T01:05:18.842Z,17.80
2022-08-26T01:07:49.846Z,17.80
2022-08-26T01:10:24.720Z,17.80
2022-08-26T01:13:11.611Z,17.90
2022-08-26T01:15:53.290Z,17.90
2022-08-26T01:18:24.115Z,17.90
2022-08-26T01:20:57.596Z,17.90
2022-08-26T01:23:33.735Z,17.90
2022-08-26T01:26:19.670Z,18.00
2022-08-26T01:28:52.681Z,18.00
2022-08-26T01:31:26.809Z,18.00
2022-08-26T01:34:05.787Z,18.00
2022-08-26T01:36:36.226Z,18.10
2022-08-26T01:39:07.889Z,18.10
2022-08-26T01:41:40.699Z,18.10
2022-08-26T01:44:20.652Z,18.10
2022-08-26T01:46:52.810Z,18.10
2022-08-26T01:49:24.960Z,18.10
2022-08-26T01:51:58.560Z,18.20
2022-08-26T01:54:29.127Z,18.20
2022-08-26T01:57:00.522Z,18.10
2022-08-26T01:59:33.203Z,18.20
2022-08-26T02:02:04.609Z,18.20
2022-08-26T02:04:42.800Z,18.20
2022-08-26T02:07:13.557Z,18.30
2022-08-26T02:09:44.661Z,18.30
2022-08-26T02:12:17.157Z,18.30
2022-08-26T02:14:53.564Z,18.30
2022-08-26T02:17:31.326Z,18.40
2022-08-26T02:20:02.123Z,18.40
2022-08-26T02:22:34.805Z,18.40
2022-08-26T02:25:37.330Z,18.40
2022-08-26T02:28:07.798Z,18.40
2022-08-26T02:30:40.815Z,18.40
2022-08-26T02:33:11.084Z,18.40
2022-08-26T02:35:42.146Z,18.50
2022-08-26T02:38:13.114Z,18.50
2022-08-26T02:40:45.698Z,18.50
2022-08-26T02:43:18.587Z,18.50
2022-08-26T02:45:54.311Z,18.50
2022-08-26T02:48:24.897Z,18.50
2022-08-26T02:50:55.849Z,18.60
2022-08-26T02:53:26.057Z,18.60
2022-08-26T02:55:56.508Z,18.60
2022-08-26T02:58:26.850Z,18.60
2022-08-26T03:00:57.778Z,18.60
2022-08-26T03:03:28.366Z,18.60
2022-08-26T03:05:58.628Z,18.70
2022-08-26T03:08:35.026Z,18.70
2022-08-26T03:11:05.417Z,18.70
2022-08-26T03:13:37.933Z,18.70
2022-08-26T03:16:08.745Z,18.70
2022-08-26T03:18:39.978Z,18.70
2022-08-26T03:21:16.888Z,18.80
2022-08-26T03:23:48.924Z,18.80
2022-08-26T03:26:21.271Z,18.80
2022-08-26T03:29:09.793Z,18.80
2022-08-26T03:31:40.089Z,18.80
2022-08-26T03:34:11.424Z,18.80
2022-08-26T03:36:42.017Z,18.80
2022-08-26T03:39:13.111Z,18.90
2022-08-26T03:41:45.844Z,18.90
2022-08-26T03:44:16.316Z,18.90
2022-08-26T03:46:48.000Z,18.90
2022-08-26T03:49:18.545Z,18.90
2022-08-26T03:51:48.982Z,18.90
2022-08-26T03:54:20.607Z,18.90
2022-08-26T03:56:50.888Z,18.90
2022-08-26T03:59:21.961Z,19.00
2022-08-26T04:01:53.204Z,19.00
2022-08-26T04:04:24.548Z,19.00
2022-08-26T04:07:00.380Z,19.00
2022-08-26T04:09:31.219Z,19.00
2022-08-26T04:12:06.174Z,19.00
2022-08-26T04:14:39.053Z,19.00
2022-08-26T04:17:09.324Z,19.10
2022-08-26T04:19:39.592Z,19.00
2022-08-26T04:22:10.275Z,19.00
2022-08-26T04:24:43.667Z,19.10
2022-08-26T04:27:14.112Z,19.10
2022-08-26T04:29:45.323Z,19.10
2022-08-26T04:32:19.028Z,19.10
2022-08-26T04:34:49.282Z,19.10
2022-08-26T04:37:19.776Z,19.10
2022-08-26T04:39:57.346Z,19.10
2022-08-26T04:42:27.689Z,19.10
2022-08-26T04:44:58.067Z,19.10
2022-08-26T04:47:32.195Z,19.10
2022-08-26T04:50:02.770Z,19.10
2022-08-26T04:52:33.177Z,19.10
2022-08-26T04:55:03.584Z,19.20
2022-08-26T04:57:37.092Z,19.20
2022-08-26T05:00:09.920Z,19.30
2022-08-26T05:02:43.034Z,19.30
2022-08-26T05:05:14.066Z,19.30
2022-08-26T05:07:44.600Z,19.30
2022-08-26T05:10:14.786Z,19.40
2022-08-26T05:12:45.161Z,19.40
2022-08-26T05:15:15.403Z,19.50
2022-08-26T05:17:46.837Z,19.50
2022-08-26T05:20:17.072Z,19.50
2022-08-26T05:22:48.176Z,19.50
2022-08-26T05:25:19.021Z,19.50
2022-08-26T05:27:49.255Z,19.60
2022-08-26T05:30:19.975Z,19.60
2022-08-26T05:32:55.411Z,19.60
2022-08-26T05:35:25.734Z,19.70
2022-08-26T05:37:57.015Z,19.70
2022-08-26T05:40:27.615Z,19.70
2022-08-26T05:42:58.834Z,19.80
2022-08-26T05:45:29.486Z,19.80
2022-08-26T05:47:59.880Z,19.80
2022-08-26T05:50:30.087Z,19.80
2022-08-26T05:53:01.348Z,19.80
2022-08-26T05:55:32.618Z,19.90
2022-08-26T05:58:03.930Z,19.90
2022-08-26T06:00:34.346Z,19.90
2022-08-26T06:03:04.782Z,19.90
2022-08-26T06:05:38.275Z,19.90
2022-08-26T06:08:13.818Z,19.90
2022-08-26T06:10:55.520Z,19.90
2022-08-26T06:13:31.976Z,19.90
2022-08-26T06:16:04.916Z,19.90
2022-08-26T06:18:38.157Z,19.90
2022-08-26T06:21:40.801Z,19.90
2022-08-26T06:24:34.069Z,19.90
2022-08-26T06:27:11.604Z,19.90
2022-08-26T06:29:43.717Z,19.90
2022-08-26T06:32:13.886Z,19.90
2022-08-26T06:34:44.489Z,19.90
2022-08-26T06:37:14.825Z,19.90
2022-08-26T06:39:45.756Z,19.90
2022-08-26T06:42:15.926Z,19.90
2022-08-26T06:44:46.430Z,19.90
2022-08-26T06:47:16.778Z,20.00
2022-08-26T06:49:47.318Z,19.90
2022-08-26T06:52:22.926Z,19.90
2022-08-26T06:54:54.801Z,20.00
2022-08-26T06:57:25.024Z,19.90
2022-08-26T06:59:55.545Z,19.90
2022-08-26T07:02:28.499Z,19.90
2022-08-26T07:04:59.548Z,20.00
2022-08-26T07:07:30.823Z,20.00
2022-08-26T07:10:09.364Z,20.00
2022-08-26T07:12:40.581Z,20.00
2022-08-26T07:15:12.144Z,20.00
2022-08-26T07:17:42.449Z,20.00
2022-08-26T07:20:14.514Z,20.00
2022-08-26T07:22:45.411Z,20.00
2022-08-26T07:25:15.692Z,20.00
2022-08-26T07:27:46.077Z,20.00
2022-08-26T07:30:24.531Z,20.00
2022-08-26T07:32:57.867Z,20.00
2022-08-26T07:35:29.878Z,20.10
2022-08-26T07:38:00.073Z,20.00
2022-08-26T07:40:31.078Z,20.10
2022-08-26T07:43:02.032Z,20.10
2022-08-26T07:45:33.392Z,20.10
2022-08-26T07:48:04.009Z,20.10
2022-08-26T07:50:49.520Z,20.10
2022-08-26T07:53:21.129Z,20.10
2022-08-26T07:55:52.226Z,20.10
2022-08-26T07:58:22.534Z,20.10
2022-08-26T08:00:52.799Z,20.10
2022-08-26T08:03:23.960Z,20.00
2022-08-26T08:05:54.273Z,20.10
2022-08-26T08:08:29.395Z,20.00
2022-08-26T08:11:00.413Z,20.10
2022-08-26T08:13:31.443Z,20.00
2022-08-26T08:16:02.770Z,20.00
2022-08-26T08:18:33.204Z,20.00
2022-08-26T08:21:20.931Z,20.00
2022-08-26T08:23:53.697Z,20.00
2022-08-26T08:26:25.642Z,20.00
2022-08-26T08:29:00.286Z,20.00
2022-08-26T08:31:56.280Z,20.00
2022-08-26T08:34:24.594Z,19.90
2022-08-26T08:36:56.393Z,19.90
2022-08-26T08:39:28.021Z,19.90
2022-08-26T08:42:18.510Z,19.90
2022-08-26T08:44:56.236Z,19.90
2022-08-26T08:47:38.142Z,19.90
2022-08-26T08:50:35.634Z,19.90
2022-08-26T08:53:26.989Z,19.90
2022-08-26T08:56:09.481Z,19.90
2022-08-26T08:58:56.727Z,19.90
2022-08-26T09:01:30.340Z,19.90
2022-08-26T09:04:34.947Z,19.90
2022-08-26T09:07:07.344Z,19.90
2022-08-26T09:09:42.767Z,19.90
2022-08-26T09:12:29.332Z,19.90
2022-08-26T09:15:35.117Z,20.00
2022-08-26T09:18:09.196Z,19.90
2022-08-26T09:21:07.232Z,19.90
2022-08-26T09:23:41.801Z,20.00
2022-08-26T09:26:41.909Z,19.90
2022-08-26T09:29:33.690Z,20.00
2022-08-26T09:32:27.337Z,19.90
2022-08-26T09:35:07.102Z,19.90
2022-08-26T09:40:36.927Z,19.90
2022-08-26T09:43:22.381Z,19.90
2022-08-26T09:46:11.611Z,19.90
2022-08-26T09:48:44.287Z,19.90
2022-08-26T09:51:26.437Z,19.90
2022-08-26T09:54:02.502Z,19.90
2022-08-26T09:56:37.166Z,19.90
2022-08-26T09:59:13.127Z,19.90
2022-08-26T10:01:45.460Z,19.90
2022-08-26T10:04:28.029Z,19.90
2022-08-26T10:07:03.345Z,19.90
2022-08-26T10:09:49.766Z,19.90
2022-08-26T10:12:25.001Z,19.90
2022-08-26T10:15:00.439Z,19.90
2022-08-26T10:17:33.946Z,19.90
2022-08-26T10:20:26.466Z,19.90
2022-08-26T10:23:10.278Z,19.90
2022-08-26T10:25:48.955Z,19.90
2022-08-26T10:28:45.831Z,19.90
2022-08-26T10:31:40.394Z,19.90
2022-08-26T10:34:13.963Z,19.90
2022-08-26T10:37:14.438Z,19.90
2022-08-26T10:39:59.355Z,19.80
2022-08-26T10:42:38.409Z,19.90
2022-08-26T10:45:18.464Z,19.90
2022-08-26T10:48:03.195Z,19.90
2022-08-26T10:50:43.356Z,19.80
2022-08-26T10:53:44.599Z,19.80
2022-08-26T10:56:24.783Z,19.80
2022-08-26T10:59:19.068Z,19.80
2022-08-26T11:02:04.461Z,19.80
2022-08-26T11:05:01.026Z,19.80
2022-08-26T11:07:54.818Z,19.80
2022-08-26T11:10:25.214Z,19.80
2022-08-26T11:13:05.435Z,19.80
2022-08-26T11:15:35.686Z,19.80
2022-08-26T11:18:35.616Z,19.80
2022-08-26T11:21:05.908Z,19.70
2022-08-26T11:23:50.405Z,19.70
2022-08-26T11:26:35.801Z,19.70
2022-08-26T11:29:13.958Z,19.80
2022-08-26T11:32:04.356Z,19.70
2022-08-26T11:34:56.383Z,19.70
2022-08-26T11:37:33.826Z,19.70
2022-08-26T11:40:06.770Z,19.70
2022-08-26T11:42:36.880Z,19.70
2022-08-26T11:45:28.182Z,19.70
2022-08-26T11:47:58.469Z,19.80
2022-08-26T11:50:31.302Z,19.70
2022-08-26T11:53:07.762Z,19.70
2022-08-26T11:55:44.729Z,19.70
2022-08-26T11:58:18.932Z,19.70
2022-08-26T12:00:50.685Z,19.70
2022-08-26T12:03:46.593Z,19.70
2022-08-26T12:08:58.338Z,19.70
2022-08-26T12:11:41.259Z,19.70
2022-08-26T12:14:27.813Z,19.70
2022-08-26T12:17:10.458Z,19.70
2022-08-26T12:19:41.271Z,19.70
2022-08-26T12:22:19.010Z,19.60
2022-08-26T12:24:56.906Z,19.70
2022-08-26T12:27:43.768Z,19.70
2022-08-26T12:30:17.992Z,19.70
2022-08-26T12:32:58.737Z,19.70
2022-08-26T12:35:30.557Z,19.60
2022-08-26T12:38:03.637Z,19.60
2022-08-26T12:40:45.361Z,19.60
2022-08-26T12:43:37.187Z,19.60
2022-08-26T12:46:08.389Z,19.60
2022-08-26T12:48:40.728Z,19.60
2022-08-26T12:51:21.012Z,19.50
2022-08-26T12:53:51.418Z,19.50
2022-08-26T12:56:43.256Z,19.50
2022-08-26T12:59:28.830Z,19.50
2022-08-26T13:01:59.172Z,19.50
2022-08-26T13:04:41.442Z,19.40
2022-08-26T13:07:25.999Z,19.40
2022-08-26T13:09:58.947Z,19.40
2022-08-26T13:12:39.066Z,19.30
2022-08-26T13:15:10.507Z,19.30
2022-08-26T13:17:40.911Z,19.30
2022-08-26T13:20:11.720Z,19.30
2022-08-26T13:25:11.902Z,19.30
2022-08-26T13:27:42.298Z,19.20
2022-08-26T13:30:14.287Z,19.20
2022-08-26T13:32:44.717Z,19.20
2022-08-26T13:35:15.330Z,19.20
2022-08-26T13:37:46.232Z,19.10
2022-08-26T13:40:16.910Z,19.10
2022-08-26T13:42:49.822Z,19.10
2022-08-26T13:45:20.996Z,19.10
2022-08-26T13:47:51.548Z,19.10
2022-08-26T13:50:22.046Z,19.10
2022-08-26T13:52:52.468Z,19.00
2022-08-26T13:55:22.857Z,19.00
2022-08-26T13:57:53.037Z,19.00
2022-08-26T14:00:24.776Z,19.00
2022-08-26T14:02:55.238Z,19.00
2022-08-26T14:05:25.747Z,19.00
2022-08-26T14:07:58.694Z,18.90
2022-08-26T14:10:29.689Z,18.90
2022-08-26T14:12:59.967Z,18.90
2022-08-26T14:15:31.043Z,18.90
2022-08-26T14:18:04.031Z,18.90
2022-08-26T14:20:35.628Z,18.80
2022-08-26T14:23:14.372Z,18.80
2022-08-26T14:25:45.449Z,18.80
2022-08-26T14:28:15.834Z,18.80
2022-08-26T14:30:49.823Z,18.70
2022-08-26T14:33:22.432Z,18.80
2022-08-26T14:35:52.802Z,18.70
2022-08-26T14:38:41.607Z,18.70
2022-08-26T14:41:12.507Z,18.70
2022-08-26T14:43:53.750Z,18.60
2022-08-26T14:46:24.385Z,18.60
2022-08-26T14:48:57.298Z,18.60
2022-08-26T14:51:32.560Z,18.60
2022-08-26T14:54:15.145Z,18.60
2022-08-26T14:57:07.685Z,18.60
2022-08-26T14:59:50.001Z,18.50
2022-08-26T15:02:27.706Z,18.50
2022-08-26T15:05:04.092Z,18.50
2022-08-26T15:07:34.909Z,18.40
2022-08-26T15:10:05.702Z,18.40
2022-08-26T15:12:36.400Z,18.40
2022-08-26T15:15:08.155Z,18.40
2022-08-26T15:17:39.215Z,18.40
2022-08-26T15:20:11.033Z,18.40
2022-08-26T15:22:44.075Z,18.30
2022-08-26T15:25:14.348Z,18.30
2022-08-26T15:27:44.607Z,18.30
2022-08-26T15:30:15.675Z,18.30
2022-08-26T15:32:46.169Z,18.30
2022-08-26T15:35:16.441Z,18.20
2022-08-26T15:37:46.959Z,18.20
2022-08-26T15:40:22.083Z,18.20
2022-08-26T15:43:01.245Z,18.20
2022-08-26T15:45:41.760Z,18.10
2022-08-26T15:48:12.840Z,18.10
2022-08-26T15:50:53.796Z,18.10
2022-08-26T15:53:25.305Z,18.10
2022-08-26T15:55:59.913Z,18.00
2022-08-26T15:58:31.562Z,18.00
2022-08-26T16:01:01.829Z,18.00
2022-08-26T16:03:32.034Z,18.00
2022-08-26T16:06:02.442Z,18.00
2022-08-26T16:08:36.450Z,18.00
2022-08-26T16:11:07.546Z,18.00
2022-08-26T16:13:39.911Z,17.90
2022-08-26T16:16:11.219Z,17.90
2022-08-26T16:18:41.631Z,17.90
2022-08-26T16:21:17.856Z,17.90
2022-08-26T16:23:48.869Z,17.90
2022-08-26T16:26:22.232Z,17.80
2022-08-26T16:28:52.635Z,17.80
2022-08-26T16:31:23.651Z,17.80
2022-08-26T16:33:54.329Z,17.80
2022-08-26T16:36:24.521Z,17.80
2022-08-26T16:38:57.982Z,17.80
2022-08-26T16:41:31.038Z,17.70
2022-08-26T16:44:02.326Z,17.70
2022-08-26T16:46:33.080Z,17.70
2022-08-26T16:49:06.323Z,17.70
2022-08-26T16:51:37.936Z,17.60
2022-08-26T16:54:10.487Z,17.60
2022-08-26T16:56:41.244Z,17.60
2022-08-26T16:59:13.284Z,17.60
2022-08-26T17:01:43.520Z,17.60
2022-08-26T17:04:14.183Z,17.60
2022-08-26T17:06:44.537Z,17.50
2022-08-26T17:09:15.377Z,17.50
2022-08-26T17:11:46.409Z,17.50
2022-08-26T17:14:16.976Z,17.50
2022-08-26T17:16:48.501Z,17.50
2022-08-26T17:19:20.392Z,17.40
2022-08-26T17:21:51.219Z,17.40
2022-08-26T17:24:22.030Z,17.40
2022-08-26T17:26:53.520Z,17.40
2022-08-26T17:29:26.057Z,17.40
2022-08-26T17:31:56.412Z,17.40
2022-08-26T17:34:26.815Z,17.30
2022-08-26T17:36:57.085Z,17.30
2022-08-26T17:39:27.258Z,17.30
2022-08-26T17:41:57.534Z,17.30
2022-08-26T17:44:28.308Z,17.30
2022-08-26T17:46:59.065Z,17.30
2022-08-26T17:49:29.678Z,17.20
2022-08-26T17:52:01.535Z,17.20
2022-08-26T17:54:32.305Z,17.20
2022-08-26T17:57:02.509Z,17.20
2022-08-26T17:59:32.870Z,17.20
2022-08-26T18:02:03.079Z,17.10
2022-08-26T18:04:33.978Z,17.10
2022-08-26T18:07:04.893Z,17.10
2022-08-26T18:09:35.548Z,17.10
2022-08-26T18:12:06.043Z,17.10
2022-08-26T18:14:37.369Z,17.10
2022-08-26T18:17:08.321Z,17.10
2022-08-26T18:19:39.318Z,17.00
2022-08-26T18:22:09.911Z,17.00
2022-08-26T18:24:58.231Z,17.00
2022-08-26T18:27:29.670Z,17.00
2022-08-26T18:30:00.150Z,16.90
2022-08-26T18:32:30.413Z,16.90
2022-08-26T18:35:00.847Z,16.90
2022-08-26T18:37:31.861Z,16.90
2022-08-26T18:40:02.328Z,16.90
2022-08-26T18:42:34.942Z,16.90
2022-08-26T18:45:06.539Z,16.80
2022-08-26T18:47:37.862Z,16.80
2022-08-26T18:50:09.618Z,16.80
2022-08-26T18:52:40.109Z,16.80
2022-08-26T18:55:11.689Z,16.80
2022-08-26T18:57:42.165Z,16.80
2022-08-26T19:00:13.122Z,16.70
2022-08-26T19:02:43.663Z,16.70
2022-08-26T19:05:22.826Z,16.70
2022-08-26T19:07:53.034Z,16.70
2022-08-26T19:10:24.339Z,16.60
2022-08-26T19:12:56.330Z,16.60
2022-08-26T19:15:29.128Z,16.60
2022-08-26T19:17:59.547Z,16.60
2022-08-26T19:20:29.851Z,16.60
2022-08-26T19:23:05.659Z,16.60
2022-08-26T19:25:36.255Z,16.60
2022-08-26T19:28:09.048Z,16.50
2022-08-26T19:30:50.110Z,16.50
2022-08-26T19:33:23.323Z,16.50
2022-08-26T19:35:53.713Z,16.50
2022-08-26T19:38:35.785Z,16.50
2022-08-26T19:41:06.070Z,16.40
2022-08-26T19:43:36.285Z,16.40
2022-08-26T19:46:16.660Z,16.40
2022-08-26T19:48:47.992Z,16.40
2022-08-26T19:51:23.125Z,16.40
2022-08-26T19:53:54.619Z,16.30
2022-08-26T19:56:25.502Z,16.30
2022-08-26T19:58:56.606Z,16.30
2022-08-26T20:01:28.009Z,16.30
2022-08-26T20:03:58.291Z,16.30
2022-08-26T20:06:28.608Z,16.20
2022-08-26T20:08:58.914Z,16.20
2022-08-26T20:11:29.205Z,16.20
2022-08-26T20:13:59.407Z,16.20
2022-08-26T20:16:29.709Z,16.20
2022-08-26T20:19:18.308Z,16.10
2022-08-26T20:21:48.887Z,16.10
2022-08-26T20:24:22.599Z,16.10
2022-08-26T20:26:52.862Z,16.10
2022-08-26T20:29:24.288Z,16.10
2022-08-26T20:31:56.186Z,16.10
2022-08-26T20:34:28.020Z,16.10
2022-08-26T20:36:58.707Z,16.10
2022-08-26T20:39:31.373Z,16.00
2022-08-26T20:42:01.705Z,16.00
2022-08-26T20:44:32.163Z,16.00
2022-08-26T20:47:02.575Z,16.00
2022-08-26T20:49:33.914Z,16.10
2022-08-26T20:52:06.644Z,16.10
2022-08-26T20:54:36.987Z,16.20
2022-08-26T20:57:07.816Z,16.20
2022-08-26T20:59:38.598Z,16.30
2022-08-26T21:02:09.079Z,16.30
2022-08-26T21:04:39.459Z,16.40
2022-08-26T21:07:09.761Z,16.40
2022-08-26T21:09:40.177Z,16.50
2022-08-26T21:12:12.376Z,16.50
2022-08-26T21:14:45.645Z,16.50
2022-08-26T21:17:18.235Z,16.60
2022-08-26T21:19:48.680Z,16.60
2022-08-26T21:22:19.846Z,16.60
2022-08-26T21:24:50.304Z,16.60
2022-08-26T21:27:26.349Z,16.70
2022-08-26T21:29:57.255Z,16.70
2022-08-26T21:32:27.589Z,16.70
2022-08-26T21:35:00.265Z,16.70
2022-08-26T21:37:31.278Z,16.70
2022-08-26T21:40:04.464Z,16.80
2022-08-26T21:42:36.702Z,16.80
2022-08-26T21:45:07.647Z,16.80
2022-08-26T21:47:38.075Z,16.80
2022-08-26T21:50:09.307Z,16.80
2022-08-26T21:52:40.974Z,16.90
2022-08-26T21:55:11.929Z,16.90
2022-08-26T21:57:42.543Z,16.90
2022-08-26T22:00:16.600Z,16.90
2022-08-26T22:02:47.058Z,16.90
2022-08-26T22:05:20.565Z,16.90
2022-08-26T22:07:50.991Z,16.90
2022-08-26T22:10:21.471Z,16.90
2022-08-26T22:12:51.665Z,17.00
2022-08-26T22:15:24.873Z,17.00
2022-08-26T22:17:55.085Z,16.90
2022-08-26T22:20:25.782Z,17.00
2022-08-26T22:22:56.130Z,17.00
2022-08-26T22:25:26.841Z,17.00
2022-08-26T22:27:57.041Z,17.00
2022-08-26T22:30:27.657Z,17.10
2022-08-26T22:32:58.010Z,17.10
2022-08-26T22:35:29.673Z,17.10
2022-08-26T22:38:00.986Z,17.10
2022-08-26T22:40:31.411Z,17.10
2022-08-26T22:43:01.756Z,17.20
2022-08-26T22:45:34.099Z,17.10
2022-08-26T22:48:06.380Z,17.20
2022-08-26T22:50:37.050Z,17.20
2022-08-26T22:53:07.755Z,17.20
2022-08-26T22:55:38.198Z,17.30
2022-08-26T22:58:09.750Z,17.30
2022-08-26T23:00:41.862Z,17.30
2022-08-26T23:03:12.334Z,17.40
2022-08-26T23:05:43.343Z,17.40
2022-08-26T23:08:15.824Z,17.40
2022-08-26T23:10:48.657Z,17.40
2022-08-26T23:13:19.373Z,17.50
2022-08-26T23:15:49.827Z,17.50
2022-08-26T23:18:20.363Z,17.50
2022-08-26T23:20:50.586Z,17.50
2022-08-26T23:23:20.963Z,17.60
2022-08-26T23:25:51.588Z,17.60
2022-08-26T23:28:22.567Z,17.60
2022-08-26T23:30:53.243Z,17.60
2022-08-26T23:33:24.066Z,17.70
2022-08-26T23:35:54.787Z,17.80
2022-08-26T23:38:25.476Z,17.70
2022-08-26T23:40:55.784Z,17.80
2022-08-26T23:43:25.988Z,17.80
2022-08-26T23:45:56.282Z,17.80
2022-08-26T23:48:26.637Z,17.90
2022-08-26T23:51:14.724Z,17.90
2022-08-26T23:53:45.282Z,17.90
2022-08-26T23:56:17.699Z,17.90
2022-08-26T23:58:48.455Z,18.00
